Time;durP1;ratioP1;P1;durP2;ratioP2;P2;SDS_P1;SDS_P2;PMS_P1;PMS_P2;Temp;Humidity;BMP_temperature;BMP_pressure;BME280_temperature;BME280_humidity;BME280_pressure;Samples;Min_cycle;Max_cycle;Signal;HPM_P1;HPM_P2
2022/03/23 00:04:26;;;;;;;20.50;10.45;;;;;;;1.60;54.64;99026.34;10331000;28;20316;-59
2022/03/23 00:09:26;;;;;;;24.67;12.85;;;;;;;1.57;55.00;99041.50;10330398;28;20029;-59
2022/03/23 00:14:25;;;;;;;28.35;13.10;;;;;;;1.46;55.37;99022.13;10330265;28;20076;-59
2022/03/23 00:19:24;;;;;;;28.80;13.48;;;;;;;1.21;55.82;99007.09;10330681;28;20072;-59
2022/03/23 00:24:23;;;;;;;27.42;13.73;;;;;;;0.71;56.15;98936.09;10330047;28;20068;-59
2022/03/23 00:29:22;;;;;;;25.63;12.43;;;;;;;1.07;57.43;99019.09;10330008;28;20057;-59
2022/03/23 00:34:21;;;;;;;20.63;11.02;;;;;;;0.88;58.68;99038.50;10330914;28;20487;-59
2022/03/23 00:39:22;;;;;;;26.17;12.80;;;;;;;0.14;59.57;98925.19;10329644;28;20143;-59
2022/03/23 00:44:21;;;;;;;19.08;11.90;;;;;;;0.65;59.60;99009.06;10329743;28;20057;-59
2022/03/23 00:49:20;;;;;;;23.17;10.40;;;;;;;0.18;60.69;98956.09;10330164;28;20032;-59
2022/03/23 00:54:23;;;;;;;23.27;11.13;;;;;;;0.54;60.46;99024.53;10329522;28;20050;-59
2022/03/23 00:59:22;;;;;;;31.00;16.90;;;;;;;0.11;60.50;98961.63;10329769;28;20061;-59
2022/03/23 01:04:21;;;;;;;49.97;26.48;;;;;;;-0.01;60.31;98936.25;10329321;28;20123;-59
2022/03/23 01:09:23;;;;;;;84.55;49.50;;;;;;;0.35;60.17;99002.16;10328787;28;20049;-59
2022/03/23 01:14:24;;;;;;;42.35;24.98;;;;;;;0.32;60.08;98994.31;10329518;28;20113;-59
2022/03/23 01:19:25;;;;;;;25.63;12.93;;;;;;;0.03;60.12;98953.50;10329175;28;20559;-59
2022/03/23 01:24:24;;;;;;;21.80;11.15;;;;;;;0.29;60.23;99001.78;10329657;28;20075;-59
2022/03/23 01:29:23;;;;;;;27.38;12.73;;;;;;;0.20;60.66;99012.34;10335492;28;20025;-59
2022/03/23 01:34:22;;;;;;;;;;;;;;;0.10;60.85;99007.47;10336812;28;20068;-59
2022/03/23 01:39:21;;;;;;;29.23;14.82;;;;;;;0.01;61.55;99016.34;10336544;28;20365;-59
2022/03/23 01:44:23;;;;;;;27.33;14.10;;;;;;;-0.06;61.15;99019.31;10334262;28;20061;-60
2022/03/23 01:49:22;;;;;;;22.58;11.25;;;;;;;-0.22;61.97;99007.28;10335351;28;20475;-59
2022/03/23 01:54:21;;;;;;;25.10;10.95;;;;;;;-0.40;62.28;98989.16;10335791;28;20398;-59
2022/03/23 01:59:20;;;;;;;21.83;10.23;;;;;;;-0.41;62.71;99006.94;10335762;28;20091;-59
2022/03/23 02:04:19;;;;;;;18.95;8.80;;;;;;;-0.47;63.08;99004.88;10337796;28;20061;-59
2022/03/23 02:09:19;;;;;;;14.75;8.38;;;;;;;-0.44;62.75;99006.72;10338783;28;20448;-59
2022/03/23 02:14:19;;;;;;;18.17;8.10;;;;;;;-0.46;63.02;99010.84;10337962;28;20057;-59
2022/03/23 02:19:21;;;;;;;19.45;8.48;;;;;;;-0.40;63.79;99022.31;10338111;28;20060;-60
2022/03/23 02:24:28;;;;;;;17.75;9.25;;;;;;;-0.55;64.22;99011.16;10338348;28;20488;-60
2022/03/23 02:29:31;;;;;;;22.13;9.93;;;;;;;-1.45;64.32;98872.16;10337633;28;20071;-60
2022/03/23 02:34:30;;;;;;;17.15;7.70;;;;;;;-2.22;64.79;98759.47;10335772;28;20065;-60
2022/03/23 02:39:29;;;;;;;15.80;8.40;;;;;;;-0.54;64.75;99030.75;10336990;28;20419;-60
2022/03/23 02:44:29;;;;;;;14.38;8.50;;;;;;;-0.52;64.65;99026.66;10336288;28;20403;-60
2022/03/23 02:49:28;;;;;;;18.70;7.43;;;;;;;-0.56;64.72;99024.69;10337018;28;20062;-60
2022/03/23 03:05:12;;;;;;;28.63;14.50;;;;;;;-1.04;65.51;98987.66;10333428;28;20065;-60
2022/03/23 03:10:11;;;;;;;23.90;14.50;;;;;;;-0.91;65.54;99030.97;10332600;28;20076;-60
2022/03/23 03:15:10;;;;;;;28.45;16.30;;;;;;;-1.60;66.14;98931.41;10332375;28;20029;-60
2022/03/23 03:20:10;;;;;;;;;;;;;;;-0.97;66.54;99038.22;10332246;28;20072;-60
2022/03/23 03:25:13;;;;;;;89.55;41.20;;;;;;;-1.00;66.08;99048.22;10331784;28;19956;-60
2022/03/23 03:30:14;;;;;;;298.70;132.48;;;;;;;-1.05;66.81;99035.19;10332149;28;20061;-61
2022/03/23 03:35:13;;;;;;;157.30;65.65;;;;;;;-1.54;67.39;98964.88;10331335;28;20522;-60
2022/03/23 03:40:12;;;;;;;;;;;;;;;-1.10;67.25;99038.22;10331805;28;20061;-60
2022/03/23 03:45:11;;;;;;;48.92;25.15;;;;;;;-1.18;67.42;99034.28;10331512;28;19917;-60
2022/03/23 03:50:11;;;;;;;58.72;30.65;;;;;;;-1.56;67.82;98990.25;10330512;28;20384;-60
2022/03/23 03:55:10;;;;;;;62.13;28.77;;;;;;;-1.27;67.88;99045.63;10329490;28;20068;-60
2022/03/23 04:00:11;;;;;;;63.20;28.83;;;;;;;-1.57;67.80;98987.59;10331624;28;20036;-60
2022/03/23 04:05:10;;;;;;;54.78;26.45;;;;;;;-1.27;68.13;99055.81;10331570;28;20061;-60
2022/03/23 04:10:09;;;;;;;41.28;22.20;;;;;;;-1.25;68.46;99059.34;10330948;28;20507;-60
2022/03/23 04:15:08;;;;;;;;;;;;;;;-1.27;68.56;99060.91;10330863;28;20494;-60
2022/03/23 04:20:09;;;;;;;46.05;22.88;;;;;;;-1.30;68.41;99060.72;10330399;28;19909;-60
2022/03/23 04:25:10;;;;;;;50.13;26.05;;;;;;;-1.31;69.00;99064.03;10330163;28;20049;-60
2022/03/23 04:30:11;;;;;;;58.85;26.90;;;;;;;-1.73;69.07;99000.94;10329272;28;20134;-60
2022/03/23 04:35:10;;;;;;;66.40;34.17;;;;;;;-1.91;69.17;98967.53;10329597;28;20470;-60
2022/03/23 04:40:10;;;;;;;32.78;18.42;;;;;;;-1.55;69.68;99021.66;10329958;28;20053;-60
2022/03/23 04:45:11;;;;;;;34.58;19.00;;;;;;;-1.24;69.75;99072.94;10329787;28;20077;-60
2022/03/23 04:50:11;;;;;;;34.67;17.70;;;;;;;-1.19;68.70;99068.16;10329690;28;20518;-60
2022/03/23 04:55:11;;;;;;;45.72;24.77;;;;;;;-1.13;69.17;99066.03;10329477;28;20068;-60
2022/03/23 05:00:13;;;;;;;45.35;24.77;;;;;;;-1.11;69.18;99069.56;10333015;28;20061;-60
2022/03/23 05:05:13;;;;;;;39.95;21.63;;;;;;;-1.06;68.71;99070.75;10340954;28;20049;-60
2022/03/23 05:10:14;;;;;;;41.65;22.23;;;;;;;-0.99;69.39;99072.91;10341284;28;20064;-60
2022/03/23 05:15:14;;;;;;;44.72;25.00;;;;;;;-0.90;69.30;99072.63;10340350;28;20055;-60
2022/03/23 05:20:15;;;;;;;71.70;40.72;;;;;;;-0.89;69.50;99090.56;10340236;28;20100;-60
2022/03/23 05:25:14;;;;;;;111.32;54.10;;;;;;;-0.84;69.11;99073.94;10339567;28;20053;-60
2022/03/23 05:30:13;;;;;;;166.32;66.95;;;;;;;-0.79;69.16;99081.84;10340177;28;20064;-60
2022/03/23 05:35:13;;;;;;;84.45;46.78;;;;;;;-0.66;68.85;99097.16;10315051;28;20080;-62
2022/03/23 05:40:13;;;;;;;77.72;45.15;;;;;;;-0.59;68.77;99101.84;10338975;28;20439;-62
2022/03/23 05:45:12;;;;;;;;;;;;;;;-0.51;68.88;99094.72;10339544;28;20076;-62
2022/03/23 05:50:11;;;;;;;86.85;46.10;;;;;;;-0.56;68.98;99088.44;10336645;28;19909;-62
2022/03/23 05:55:10;;;;;;;97.10;50.42;;;;;;;-0.32;68.95;99094.22;10333567;28;20067;-62
2022/03/23 06:00:09;;;;;;;75.78;44.88;;;;;;;-0.20;68.82;99091.56;10337593;28;20061;-62
2022/03/23 06:05:10;;;;;;;85.25;47.67;;;;;;;-0.14;68.13;99078.28;10334626;28;20061;-62
2022/03/23 06:10:09;;;;;;;75.35;43.33;;;;;;;-0.03;68.12;99090.94;10332715;28;20084;-62
2022/03/23 06:15:10;;;;;;;68.40;39.10;;;;;;;-0.16;68.44;99057.78;10332884;28;20480;-62
2022/03/23 06:20:09;;;;;;;59.30;32.70;;;;;;;0.22;68.25;99087.34;10334480;28;20183;-62
2022/03/23 06:25:09;;;;;;;;;;;;;;;0.39;68.25;99083.25;10333779;28;20060;-62
2022/03/23 06:30:08;;;;;;;43.00;24.80;;;;;;;0.54;67.82;99085.84;10333853;28;19964;-59
2022/03/23 06:35:08;;;;;;;;;;;;;;;0.74;67.51;99075.13;10332490;28;20066;-61
2022/03/23 06:40:07;;;;;;;76.22;40.58;;;;;;;0.27;66.91;98973.63;10326440;28;19955;-59
2022/03/23 06:45:06;;;;;;;;;;;;;;;1.11;66.71;99083.28;10331773;28;20065;-60
2022/03/23 06:50:07;;;;;;;71.82;41.28;;;;;;;1.04;66.16;99041.94;10330684;28;19999;-61
2022/03/23 06:55:07;;;;;;;71.60;39.38;;;;;;;1.53;65.63;99083.06;10332562;28;20057;-61
2022/03/23 07:00:13;;;;;;;68.53;41.03;;;;;;;1.79;64.86;99086.19;10332876;28;20069;-62
2022/03/23 07:05:14;;;;;;;61.92;35.97;;;;;;;2.00;64.29;99089.00;10332313;28;20094;-59
2022/03/23 07:10:13;;;;;;;277.30;144.45;;;;;;;2.17;63.73;99078.88;10331140;28;20068;-60
2022/03/23 07:15:12;;;;;;;64.10;38.85;;;;;;;2.52;63.15;99087.56;10332448;28;20039;-60
2022/03/23 07:20:11;;;;;;;65.20;34.72;;;;;;;2.83;62.70;99086.56;10327052;28;20030;-60
2022/03/23 07:25:11;;;;;;;65.47;31.88;;;;;;;2.80;62.19;99045.41;10329331;28;20048;-60
2022/03/23 07:30:10;;;;;;;43.28;22.08;;;;;;;3.32;62.06;99058.22;10331669;28;20131;-60
2022/03/23 07:35:09;;;;;;;29.60;12.75;;;;;;;3.70;61.07;99077.16;10329770;28;20126;-61
2022/03/23 07:40:09;;;;;;;31.92;16.08;;;;;;;4.08;60.95;99080.66;10330925;28;20037;-61
2022/03/23 07:45:09;;;;;;;17.27;9.15;;;;;;;4.24;60.20;99057.41;10330773;28;20531;-61
2022/03/23 07:50:08;;;;;;;46.22;21.48;;;;;;;4.52;58.94;99042.31;10331564;28;20076;-61
2022/03/23 07:55:08;;;;;;;29.10;13.00;;;;;;;4.98;57.89;99070.91;10330185;28;20057;-61
2022/03/23 08:00:07;;;;;;;;;;;;;;;5.25;56.18;99076.34;10331562;28;20068;-61
2022/03/23 08:05:08;;;;;;;17.05;8.80;;;;;;;5.30;56.41;99028.50;10330810;28;20510;-60
2022/03/23 08:10:07;;;;;;;13.63;7.20;;;;;;;5.23;53.98;99005.03;10330429;28;20056;-60
2022/03/23 08:15:07;;;;;;;16.50;6.82;;;;;;;5.52;53.73;99030.22;10330385;28;20498;-60
2022/03/23 08:25:28;;;;;;;16.40;7.97;;;;;;;6.08;52.86;99068.44;10330322;28;20096;-60
2022/03/23 08:30:27;;;;;;;25.02;13.32;;;;;;;6.19;51.69;99062.88;10329843;28;20478;-60
2022/03/23 08:35:26;;;;;;;16.30;8.60;;;;;;;6.53;52.33;99052.91;10333186;28;20068;-60
2022/03/23 08:40:26;;;;;;;14.98;8.18;;;;;;;6.58;50.16;99005.81;10338142;28;20338;-60
2022/03/23 08:45:26;;;;;;;13.95;7.57;;;;;;;6.63;49.23;99041.19;10337793;28;20486;-60
2022/03/23 08:50:25;;;;;;;18.35;7.72;;;;;;;6.40;48.65;99031.84;10338025;28;20060;-59
2022/03/23 08:55:25;;;;;;;13.68;6.57;;;;;;;6.18;49.30;99037.03;10337668;28;20033;-60
2022/03/23 09:00:24;;;;;;;12.60;6.90;;;;;;;6.25;49.11;99035.56;10337409;28;20084;-60
2022/03/23 09:05:23;;;;;;;;;;;;;;;6.66;47.90;99024.16;10337803;28;20079;-60
2022/03/23 09:10:23;;;;;;;13.85;7.22;;;;;;;6.82;47.63;99031.59;10337139;28;20426;-61
2022/03/23 09:15:23;;;;;;;11.45;6.22;;;;;;;7.12;45.97;99014.50;10333121;28;20057;-60
2022/03/23 09:20:22;;;;;;;16.73;8.27;;;;;;;7.32;44.80;98979.88;10336715;28;20152;-59
2022/03/23 09:25:22;;;;;;;13.23;6.03;;;;;;;6.81;43.43;98918.00;10336713;28;20031;-59
2022/03/23 09:30:21;;;;;;;11.82;6.85;;;;;;;7.57;44.01;98996.16;10336272;28;20072;-59
2022/03/23 09:35:20;;;;;;;13.95;6.80;;;;;;;7.55;43.09;98993.53;10336169;28;20049;-59
2022/03/23 09:40:28;;;;;;;12.55;5.68;;;;;;;7.40;43.48;98987.88;10336216;28;20037;-60
2022/03/23 09:50:33;;;;;;;11.00;5.97;;;;;;;7.28;43.98;98995.22;10335489;28;20067;-59
2022/03/23 09:55:33;;;;;;;13.00;7.03;;;;;;;7.07;43.68;98925.72;10335331;28;20057;-59
2022/03/23 10:00:40;;;;;;;11.82;6.53;;;;;;;7.50;43.08;98977.03;10336685;28;20462;-59
2022/03/23 10:05:54;;;;;;;13.32;7.28;;;;;;;7.94;42.17;98974.88;10338336;28;20037;-59
2022/03/23 10:11:12;;;;;;;15.02;6.82;;;;;;;8.07;41.65;98970.94;10337586;28;20071;-59
2022/03/23 10:16:45;;;;;;;16.63;7.20;;;;;;;8.09;40.96;98959.81;10337691;28;20061;-59
2022/03/23 10:21:45;;;;;;;11.77;7.43;;;;;;;8.14;41.51;98956.50;10332982;28;20507;-59
2022/03/23 10:26:44;;;;;;;13.30;6.45;;;;;;;8.04;39.78;98939.84;10337676;28;20053;-60
2022/03/23 10:31:42;;;;;;;15.10;5.35;;;;;;;7.92;40.26;98932.63;10338157;28;20033;-59
2022/03/23 10:36:41;;;;;;;11.45;5.78;;;;;;;8.05;39.96;98937.28;10335268;28;20132;-59
2022/03/23 10:41:40;;;;;;;10.80;6.50;;;;;;;7.82;39.85;98920.25;10337025;28;20025;-59
2022/03/23 10:46:40;;;;;;;15.60;9.25;;;;;;;7.86;39.23;98925.56;10337420;28;20129;-59
2022/03/23 10:51:42;;;;;;;24.17;13.25;;;;;;;8.04;39.82;98932.97;10335378;28;20069;-59
2022/03/23 10:56:42;;;;;;;11.95;5.70;;;;;;;7.71;39.14;98847.63;10336370;28;20057;-59
2022/03/23 11:01:59;;;;;;;14.73;6.28;;;;;;;8.21;39.09;98909.28;10334574;28;20060;-60
2022/03/23 11:06:59;;;;;;;13.85;5.97;;;;;;;8.55;38.19;98897.22;10332490;28;20061;-59
2022/03/23 11:17:29;;;;;;;14.93;6.55;;;;;;;8.55;37.40;98884.28;10332761;28;20069;-59
2022/03/23 11:22:28;;;;;;;16.73;8.05;;;;;;;8.64;36.12;98871.56;10331962;28;20057;-59
2022/03/23 11:27:28;;;;;;;15.80;8.05;;;;;;;8.88;36.47;98874.78;10332049;28;20521;-59
2022/03/23 11:32:29;;;;;;;;;;;;;;;9.03;35.47;98863.03;10332651;28;20418;-59
2022/03/23 11:37:29;;;;;;;11.55;5.55;;;;;;;9.17;35.69;98861.63;10331357;28;19959;-59
2022/03/23 11:42:29;;;;;;;8.70;4.95;;;;;;;9.28;35.75;98831.69;10328326;28;20071;-59
2022/03/23 11:47:39;;;;;;;12.27;6.20;;;;;;;9.29;34.05;98802.34;10331815;28;20080;-60
2022/03/23 11:52:59;;;;;;;10.45;5.68;;;;;;;9.49;32.44;98840.75;10330809;28;20083;-60
2022/03/23 11:58:16;;;;;;;14.63;7.05;;;;;;;9.56;34.57;98837.44;10331027;28;20060;-60
2022/03/23 12:03:41;;;;;;;14.35;7.75;;;;;;;9.74;34.21;98819.66;10331234;28;20060;-60
2022/03/23 12:08:46;;;;;;;16.73;7.43;;;;;;;9.94;34.50;98816.56;10330076;28;20463;-60
2022/03/23 12:13:56;;;;;;;18.90;7.68;;;;;;;9.69;35.35;98776.34;10330477;28;20061;-60
2022/03/23 12:19:03;;;;;;;;;;;;;;;9.49;33.61;98812.25;10360155;28;20075;-60
2022/03/23 12:24:13;;;;;;;12.45;6.15;;;;;;;9.63;34.78;98805.63;10370158;28;19982;-59
2022/03/23 12:29:21;;;;;;;11.63;6.60;;;;;;;9.79;33.50;98799.00;10371343;28;20060;-60
2022/03/23 12:34:26;;;;;;;11.60;7.00;;;;;;;9.61;34.60;98745.13;10370929;28;20067;-60
2022/03/23 12:39:35;;;;;;;13.07;5.78;;;;;;;10.22;33.16;98779.03;10370174;28;20443;-60
2022/03/23 12:44:34;;;;;;;14.63;7.78;;;;;;;10.37;32.49;98768.91;10370980;28;20620;-60
2022/03/23 13:00:33;;;;;;;10.32;7.30;;;;;;;10.26;33.11;98759.19;10370931;28;20491;-60
2022/03/23 13:05:33;;;;;;;12.90;6.43;;;;;;;10.24;33.08;98764.38;10370927;28;20045;-60
2022/03/23 13:10:32;;;;;;;10.70;5.90;;;;;;;9.49;32.40;98612.75;10370361;28;20491;-60
2022/03/23 13:15:31;;;;;;;8.07;4.63;;;;;;;10.44;30.73;98756.91;10358649;28;20522;-60
2022/03/23 13:20:31;;;;;;;12.45;6.25;;;;;;;10.46;31.98;98763.00;10330076;28;20044;-60
2022/03/23 13:25:30;;;;;;;7.97;5.15;;;;;;;10.53;30.67;98743.19;10335499;28;20061;-60
2022/03/23 13:30:34;;;;;;;17.83;7.90;;;;;;;10.47;31.23;98744.00;10337366;28;20068;-60
2022/03/23 13:35:43;;;;;;;14.32;7.78;;;;;;;10.76;31.34;98746.13;10336021;28;20479;-60
2022/03/23 13:46:01;;;;;;;10.52;5.47;;;;;;;10.58;31.93;98723.38;10336438;28;20072;-60
2022/03/23 13:51:01;;;;;;;33.67;9.68;;;;;;;10.52;30.92;98711.19;10335943;28;20068;-60
2022/03/23 13:55:59;;;;;;;;;;;;;;;10.67;32.23;98730.44;10336401;28;20068;-60
2022/03/23 14:01:01;;;;;;;12.48;6.40;;;;;;;10.46;31.94;98689.47;10335712;28;19915;-60
2022/03/23 14:06:07;;;;;;;13.32;6.38;;;;;;;10.61;31.90;98726.00;10335074;28;20091;-60
2022/03/23 14:11:10;;;;;;;17.00;8.93;;;;;;;10.58;30.42;98726.81;10335042;28;20060;-60
2022/03/23 14:16:09;;;;;;;13.82;6.70;;;;;;;10.23;30.80;98650.19;10334736;28;20076;-60
2022/03/23 14:21:09;;;;;;;14.55;5.35;;;;;;;10.35;30.19;98640.00;10335271;28;20030;-60
2022/03/23 14:26:28;;;;;;;13.55;5.85;;;;;;;10.61;31.40;98706.13;10334823;28;20091;-60
2022/03/23 14:31:27;;;;;;;15.38;7.65;;;;;;;10.47;30.70;98715.44;10334104;28;20060;-59
2022/03/23 14:36:28;;;;;;;10.77;5.18;;;;;;;10.43;30.49;98708.47;10333664;28;20072;-59
2022/03/23 14:41:27;;;;;;;15.07;6.47;;;;;;;10.44;30.31;98697.22;10334140;28;20076;-60
2022/03/23 14:46:29;;;;;;;19.55;8.55;;;;;;;10.41;31.00;98702.38;10333709;28;20081;-60
2022/03/23 14:51:28;;;;;;;13.63;5.63;;;;;;;10.38;30.20;98707.53;10333977;28;20487;-60
2022/03/23 14:56:27;;;;;;;14.55;7.20;;;;;;;10.20;30.92;98718.47;10333578;28;20064;-60
2022/03/23 15:01:27;;;;;;;18.58;6.95;;;;;;;10.13;30.16;98707.13;10334984;28;20041;-60
2022/03/23 15:17:01;;;;;;;24.08;12.70;;;;;;;10.10;28.79;98703.63;10335793;28;20053;-60
2022/03/23 15:22:07;;;;;;;27.08;13.38;;;;;;;10.01;27.88;98693.09;10337031;28;20048;-60
2022/03/23 15:27:06;;;;;;;105.38;50.95;;;;;;;10.02;28.49;98693.09;10335560;28;20057;-60
2022/03/23 15:32:06;;;;;;;34.63;20.58;;;;;;;9.98;28.83;98712.94;10335991;28;20064;-60
2022/03/23 15:37:06;;;;;;;44.97;24.10;;;;;;;9.62;29.03;98656.16;10335568;28;20073;-60
2022/03/23 15:42:05;;;;;;;13.30;7.30;;;;;;;9.89;29.55;98704.16;10335214;28;20080;-60
2022/03/23 15:47:04;;;;;;;;;;;;;;;9.78;29.35;98704.81;10334385;28;20069;-60
2022/03/23 15:52:03;;;;;;;34.58;19.00;;;;;;;9.69;29.77;98707.25;10335223;28;20007;-60
2022/03/23 15:57:02;;;;;;;34.22;17.17;;;;;;;9.78;30.15;98693.56;10334628;28;20458;-60
2022/03/23 16:02:01;;;;;;;21.95;11.43;;;;;;;9.53;30.20;98702.63;10332328;28;20071;-60
2022/03/23 16:07:00;;;;;;;26.00;11.65;;;;;;;9.42;29.81;98714.50;10331073;28;20060;-60
2022/03/23 16:11:59;;;;;;;28.75;13.13;;;;;;;9.30;30.14;98710.84;10331359;28;20037;-60
2022/03/23 16:16:58;;;;;;;26.98;13.40;;;;;;;9.31;30.29;98710.00;10327982;28;20498;-60
2022/03/23 16:21:57;;;;;;;27.00;14.05;;;;;;;9.19;30.42;98712.31;10330644;28;20062;-60
2022/03/23 16:26:56;;;;;;;26.50;14.80;;;;;;;9.06;30.78;98715.50;10330435;28;20048;-60
2022/03/23 16:31:55;;;;;;;36.17;23.67;;;;;;;8.92;31.02;98712.63;10330339;28;20065;-59
2022/03/23 16:36:57;;;;;;;19.33;12.95;;;;;;;8.74;31.20;98713.13;10330165;28;20084;-59
2022/03/23 16:41:56;;;;;;;20.92;12.40;;;;;;;8.60;31.62;98699.88;10329971;28;20088;-60
2022/03/23 16:46:56;;;;;;;23.08;12.40;;;;;;;8.49;31.44;98717.75;10330113;28;20077;-60
2022/03/23 16:51:54;;;;;;;26.67;15.30;;;;;;;8.33;31.95;98719.94;10329994;28;20060;-59
2022/03/23 16:56:53;;;;;;;26.02;16.27;;;;;;;7.84;31.91;98689.47;10333951;28;20025;-59
2022/03/23 17:01:52;;;;;;;30.50;20.20;;;;;;;7.95;32.66;98719.91;10338133;28;20033;-60
2022/03/23 17:12:26;;;;;;;40.33;20.48;;;;;;;7.66;33.07;98723.50;10338024;28;20073;-59
2022/03/23 17:17:25;;;;;;;49.20;28.35;;;;;;;7.54;33.50;98725.72;10336954;28;20895;-59
2022/03/23 17:22:26;;;;;;;73.45;39.47;;;;;;;7.28;35.01;98716.38;10337320;28;20056;-60
2022/03/23 17:27:27;;;;;;;73.78;37.45;;;;;;;7.07;35.81;98722.69;10336521;28;20475;-59
2022/03/23 17:32:28;;;;;;;56.15;32.80;;;;;;;6.86;36.64;98722.06;10336581;28;20053;-60
2022/03/23 17:37:28;;;;;;;46.80;25.88;;;;;;;6.64;37.15;98720.56;10335775;28;20064;-59
2022/03/23 17:42:27;;;;;;;35.90;21.33;;;;;;;6.40;37.96;98731.91;10336500;28;20499;-60
2022/03/23 17:47:26;;;;;;;43.83;30.35;;;;;;;6.22;38.05;98741.63;10335737;28;20495;-60
2022/03/23 17:52:25;;;;;;;42.90;25.25;;;;;;;5.99;38.58;98739.16;10336213;28;20064;-59
2022/03/23 17:57:24;;;;;;;38.90;23.35;;;;;;;5.76;38.81;98752.13;10335989;28;20036;-59
2022/03/23 18:02:23;;;;;;;36.75;23.52;;;;;;;5.44;39.30;98733.03;10337954;28;20039;-59
2022/03/23 18:07:23;;;;;;;40.85;25.60;;;;;;;5.41;39.86;98753.47;10337602;28;20442;-60
2022/03/23 18:12:22;;;;;;;72.07;43.53;;;;;;;5.13;39.83;98720.75;10338977;28;20064;-60
2022/03/23 18:17:21;;;;;;;;;;;;;;;5.17;40.72;98755.19;10338274;28;20073;-59
2022/03/23 18:22:20;;;;;;;42.72;26.08;;;;;;;4.93;41.19;98738.00;10338428;28;19955;-61
2022/03/23 18:27:19;;;;;;;42.25;23.95;;;;;;;4.87;41.48;98754.06;10337181;28;20121;-59
2022/03/23 18:32:18;;;;;;;43.58;26.58;;;;;;;4.81;41.76;98765.84;10338355;28;20293;-60
2022/03/23 18:37:17;;;;;;;67.22;37.15;;;;;;;4.65;42.24;98762.66;10338023;28;20034;-60
2022/03/23 18:42:16;;;;;;;48.95;27.55;;;;;;;4.50;43.19;98767.19;10336811;28;20503;-61
2022/03/23 18:47:15;;;;;;;42.92;25.92;;;;;;;3.99;43.93;98710.41;10336948;28;20049;-60
2022/03/23 18:52:14;;;;;;;47.67;26.92;;;;;;;4.20;44.75;98778.03;10337382;28;20026;-60
2022/03/23 18:57:13;;;;;;;52.58;34.78;;;;;;;4.08;44.91;98774.97;10336903;28;20025;-60
2022/03/23 19:02:12;;;;;;;49.65;31.40;;;;;;;3.95;45.42;98762.44;10334398;28;20057;-60
2022/03/23 19:07:11;;;;;;;63.97;36.72;;;;;;;3.72;46.38;98770.03;10332857;28;20108;-60
2022/03/23 19:12:10;;;;;;;59.67;34.97;;;;;;;3.57;46.41;98751.44;10333095;28;20061;-60
2022/03/23 19:17:10;;;;;;;66.22;38.60;;;;;;;3.11;47.57;98703.28;10332589;28;20044;-60
2022/03/23 19:22:10;;;;;;;84.40;53.15;;;;;;;2.90;47.71;98673.31;10332053;28;20061;-60
2022/03/23 19:27:10;;;;;;;59.85;36.95;;;;;;;3.34;47.96;98735.94;10279605;28;20527;-60
2022/03/23 19:32:10;;;;;;;519.90;245.15;;;;;;;2.91;48.38;98677.66;10331931;28;20076;-60
2022/03/23 19:37:09;;;;;;;82.32;50.55;;;;;;;3.20;48.19;98724.19;10332855;28;20069;-60
2022/03/23 19:42:08;;;;;;;106.47;54.60;;;;;;;3.16;48.76;98728.28;10332090;28;20069;-60
2022/03/23 19:47:07;;;;;;;83.55;46.85;;;;;;;3.08;49.35;98731.34;10331293;28;20060;-60
2022/03/23 19:52:06;;;;;;;70.40;39.00;;;;;;;2.98;49.45;98728.38;10330132;28;20142;-60
2022/03/23 19:57:05;;;;;;;149.70;71.95;;;;;;;2.84;49.93;98734.59;10332334;28;20057;-60
2022/03/23 20:02:05;;;;;;;183.65;88.95;;;;;;;2.79;50.93;98741.16;10331480;28;20088;-60
2022/03/23 20:07:04;;;;;;;143.30;62.38;;;;;;;2.49;52.27;98738.06;10331152;28;20064;-60
2022/03/23 20:12:04;;;;;;;54.25;33.25;;;;;;;2.54;51.68;98734.06;10331115;28;20067;-60
2022/03/23 20:17:03;;;;;;;87.32;49.10;;;;;;;2.48;51.44;98739.75;10330554;28;20057;-60
2022/03/23 20:22:03;;;;;;;95.68;54.85;;;;;;;2.33;52.16;98731.38;10330861;28;20080;-60
2022/03/23 20:27:02;;;;;;;130.52;77.65;;;;;;;2.16;52.83;98713.53;10330339;28;20475;-59
2022/03/23 20:32:01;;;;;;;173.65;102.03;;;;;;;1.73;54.15;98683.28;10334505;28;20068;-60
2022/03/23 20:37:00;;;;;;;144.60;85.80;;;;;;;1.64;53.56;98682.84;10339371;28;20057;-60
2022/03/23 20:41:59;;;;;;;153.98;92.53;;;;;;;1.85;53.77;98707.72;10338743;28;20042;-60
2022/03/23 20:46:58;;;;;;;131.88;80.40;;;;;;;1.82;53.91;98697.34;10338734;28;20079;-60
2022/03/23 20:51:57;;;;;;;113.82;67.68;;;;;;;1.74;54.22;98689.31;10338235;28;20061;-60
2022/03/23 20:56:56;;;;;;;177.80;96.68;;;;;;;1.64;55.17;98712.66;10337950;28;20475;-60
2022/03/23 21:01:55;;;;;;;105.00;62.85;;;;;;;1.63;56.31;98722.03;10338138;28;20061;-59
2022/03/23 21:07:00;;;;;;;51.40;27.88;;;;;;;1.50;56.44;98719.66;10337791;28;20026;-60
2022/03/23 21:11:59;;;;;;;39.92;21.73;;;;;;;1.29;56.81;98722.91;10338691;28;20061;-60
2022/03/23 21:16:58;;;;;;;44.67;25.17;;;;;;;1.20;56.60;98725.00;10337186;28;20462;-60
2022/03/23 21:21:57;;;;;;;40.45;24.75;;;;;;;1.10;56.72;98713.38;10337169;28;20033;-60
2022/03/23 21:26:56;;;;;;;33.30;20.23;;;;;;;1.07;57.44;98728.56;10337082;28;20053;-60
2022/03/23 21:31:55;;;;;;;33.80;18.38;;;;;;;1.11;57.18;98719.41;10336883;28;20158;-60
2022/03/23 21:36:54;;;;;;;34.97;18.30;;;;;;;1.11;57.16;98711.72;10337015;28;20057;-60
2022/03/23 21:41:53;;;;;;;47.53;24.42;;;;;;;1.10;57.14;98702.28;10336331;28;20037;-60
2022/03/23 21:46:52;;;;;;;108.93;58.63;;;;;;;0.98;57.90;98696.56;10337060;28;20477;-60
2022/03/23 21:51:51;;;;;;;102.75;54.72;;;;;;;0.73;58.26;98666.28;10336522;28;20384;-60
2022/03/23 21:56:51;;;;;;;98.72;62.22;;;;;;;0.78;59.17;98685.28;10335819;28;20057;-60
2022/03/23 22:01:52;;;;;;;100.53;56.70;;;;;;;0.67;59.93;98700.06;10335984;28;20501;-60
2022/03/23 22:06:51;;;;;;;;;;;;;;;0.60;59.55;98695.44;10336257;28;20565;-60
2022/03/23 22:11:50;;;;;;;100.37;55.27;;;;;;;0.56;59.73;98696.06;10335631;28;19949;-60
2022/03/23 22:16:49;;;;;;;102.35;54.15;;;;;;;0.40;60.60;98695.22;10335227;28;20040;-60
2022/03/23 22:21:48;;;;;;;98.28;57.75;;;;;;;0.20;60.26;98655.00;10333604;28;20048;-60
2022/03/23 22:26:47;;;;;;;91.15;48.85;;;;;;;0.33;60.95;98693.13;10334873;28;20053;-60
2022/03/23 22:31:46;;;;;;;71.78;37.40;;;;;;;0.19;60.86;98665.97;10334596;28;20426;-60
2022/03/23 22:36:45;;;;;;;80.85;37.85;;;;;;;-0.18;61.19;98610.41;10334615;28;20025;-60
2022/03/23 22:41:44;;;;;;;136.75;66.40;;;;;;;0.12;61.50;98669.00;10334178;28;20475;-60
2022/03/23 22:46:44;;;;;;;89.40;43.55;;;;;;;0.04;61.42;98656.69;10334433;28;20085;-59
2022/03/23 22:51:43;;;;;;;94.32;52.20;;;;;;;0.09;61.87;98671.38;10334178;28;20076;-60
2022/03/23 22:56:42;;;;;;;123.70;68.03;;;;;;;-0.03;61.92;98648.63;10332701;28;20040;-60
2022/03/23 23:01:41;;;;;;;123.65;64.05;;;;;;;-0.04;62.53;98660.50;10333223;28;20060;-60
2022/03/23 23:06:40;;;;;;;128.68;69.97;;;;;;;-0.04;62.95;98662.16;10333281;28;20061;-60
2022/03/23 23:11:39;;;;;;;132.70;69.15;;;;;;;-0.17;63.55;98648.75;10332824;28;20120;-60
2022/03/23 23:16:38;;;;;;;;;;;;;;;-0.20;63.87;98647.72;10330606;28;20088;-60
2022/03/23 23:21:37;;;;;;;121.60;65.97;;;;;;;-0.22;63.95;98649.28;10330357;28;20303;-60
2022/03/23 23:26:36;;;;;;;119.28;59.50;;;;;;;-0.24;64.04;98645.78;10331306;28;20498;-60
2022/03/23 23:31:35;;;;;;;138.63;71.85;;;;;;;-0.29;64.03;98637.88;10332224;28;20073;-60
2022/03/23 23:36:43;;;;;;;135.25;68.15;;;;;;;-0.33;64.10;98632.50;10333152;28;20069;-60
2022/03/23 23:41:42;;;;;;;157.95;78.90;;;;;;;-0.41;64.65;98632.97;10332107;28;20514;-60
2022/03/23 23:46:44;;;;;;;150.68;80.15;;;;;;;-0.48;64.81;98635.97;10331588;28;20442;-60
2022/03/23 23:51:43;;;;;;;180.05;88.70;;;;;;;-0.53;64.97;98626.28;10330274;28;20130;-60
2022/03/23 23:56:42;;;;;;;115.72;54.20;;;;;;;-0.53;64.42;98621.16;10331432;28;20064;-60
